createdAt,value
2024-03-09T00:02:03.081Z,5.03
2024-03-09T00:04:32.869Z,5.00
2024-03-09T00:07:02.503Z,6.15
2024-03-09T00:09:37.261Z,5.95
2024-03-09T00:12:10.930Z,5.63
2024-03-09T00:14:40.960Z,5.10
2024-03-09T00:17:10.672Z,5.10
2024-03-09T00:19:42.375Z,5.43
2024-03-09T00:22:12.244Z,5.38
2024-03-09T00:24:41.885Z,5.70
2024-03-09T00:27:13.765Z,5.75
2024-03-09T00:29:43.470Z,5.93
2024-03-09T00:32:13.917Z,5.68
2024-03-09T00:34:43.575Z,5.75
2024-03-09T00:37:14.320Z,5.63
2024-03-09T00:39:45.401Z,5.57
2024-03-09T00:42:22.179Z,5.60
2024-03-09T00:44:52.666Z,5.47
2024-03-09T00:47:23.420Z,5.70
2024-03-09T00:49:53.173Z,6.00
2024-03-09T00:52:22.835Z,5.75
2024-03-09T00:54:52.554Z,5.57
2024-03-09T00:57:23.558Z,5.70
2024-03-09T00:59:55.140Z,5.53
2024-03-09T01:02:24.968Z,5.57
2024-03-09T01:04:54.718Z,5.93
2024-03-09T01:07:26.508Z,5.90
2024-03-09T01:09:56.199Z,5.45
2024-03-09T01:12:26.550Z,5.45
2024-03-09T01:14:56.860Z,5.80
2024-03-09T01:17:29.670Z,5.68
2024-03-09T01:20:02.585Z,5.72
2024-03-09T01:22:32.420Z,5.78
2024-03-09T01:25:02.263Z,5.07
2024-03-09T01:27:31.964Z,5.47
2024-03-09T01:30:04.456Z,5.35
2024-03-09T01:32:36.885Z,5.47
2024-03-09T01:35:07.004Z,5.40
2024-03-09T01:37:36.791Z,5.57
2024-03-09T01:40:08.114Z,5.15
2024-03-09T01:42:37.824Z,5.63
2024-03-09T01:45:08.595Z,5.88
2024-03-09T01:47:39.573Z,5.47
2024-03-09T01:50:15.946Z,5.60
2024-03-09T01:52:50.884Z,5.30
2024-03-09T01:55:22.786Z,5.43
2024-03-09T01:57:53.404Z,6.05
2024-03-09T02:00:27.381Z,5.22
2024-03-09T02:02:58.523Z,5.10
2024-03-09T02:05:28.631Z,5.50
2024-03-09T02:07:58.474Z,5.20
2024-03-09T02:10:28.522Z,5.50
2024-03-09T02:13:00.610Z,5.68
2024-03-09T02:15:32.642Z,5.95
2024-03-09T02:18:02.995Z,5.88
2024-03-09T02:20:34.088Z,5.50
2024-03-09T02:23:04.154Z,5.43
2024-03-09T02:25:34.024Z,5.20
2024-03-09T02:28:04.933Z,5.15
2024-03-09T02:30:35.756Z,5.68
2024-03-09T02:33:10.913Z,5.18
2024-03-09T02:35:40.648Z,5.22
2024-03-09T02:38:11.884Z,5.50
2024-03-09T02:40:41.814Z,5.32
2024-03-09T02:43:14.462Z,5.43
2024-03-09T02:45:45.231Z,5.45
2024-03-09T02:48:15.010Z,4.82
2024-03-09T02:50:45.217Z,4.75
2024-03-09T02:53:15.138Z,5.45
2024-03-09T02:55:45.608Z,5.45
2024-03-09T02:58:18.119Z,5.68
2024-03-09T03:00:49.132Z,5.50
2024-03-09T03:03:39.763Z,5.90
2024-03-09T03:06:09.726Z,4.95
2024-03-09T03:08:39.448Z,5.40
2024-03-09T03:11:09.114Z,4.97
2024-03-09T03:13:38.883Z,5.43
2024-03-09T03:16:09.226Z,5.15
2024-03-09T03:18:39.057Z,5.88
2024-03-09T03:21:08.802Z,4.88
2024-03-09T03:23:38.974Z,5.80
2024-03-09T03:26:11.243Z,4.88
2024-03-09T03:31:12.306Z,5.85
2024-03-09T03:33:42.076Z,5.07
2024-03-09T03:36:18.306Z,5.32
2024-03-09T03:38:49.304Z,5.15
2024-03-09T03:41:21.098Z,5.50
2024-03-09T03:43:50.968Z,4.85
2024-03-09T03:46:20.782Z,5.53
2024-03-09T03:48:50.521Z,5.00
2024-03-09T03:51:20.904Z,5.40
2024-03-09T03:53:51.207Z,5.50
2024-03-09T03:56:26.919Z,5.05
2024-03-09T03:59:02.523Z,5.03
2024-03-09T04:01:32.242Z,5.72
2024-03-09T04:04:02.032Z,5.28
2024-03-09T04:06:31.701Z,4.95
2024-03-09T04:09:01.704Z,4.95
2024-03-09T04:11:38.623Z,4.68
2024-03-09T04:14:08.397Z,4.72
2024-03-09T04:16:38.785Z,5.53
2024-03-09T04:19:09.654Z,5.32
2024-03-09T04:21:40.880Z,5.15
2024-03-09T04:24:12.463Z,4.40
2024-03-09T04:26:43.206Z,5.10
2024-03-09T04:29:13.556Z,5.20
2024-03-09T04:31:43.304Z,5.53
2024-03-09T04:34:14.662Z,4.85
2024-03-09T04:36:48.688Z,4.95
2024-03-09T04:39:21.510Z,4.72
2024-03-09T04:41:51.293Z,4.78
2024-03-09T04:44:27.517Z,5.00
2024-03-09T04:47:04.505Z,5.07
2024-03-09T04:49:34.138Z,4.45
2024-03-09T04:52:03.838Z,5.20
2024-03-09T04:54:35.273Z,5.15
2024-03-09T04:57:06.868Z,5.05
2024-03-09T04:59:36.580Z,4.95
2024-03-09T05:02:06.894Z,5.00
2024-03-09T05:04:36.737Z,4.95
2024-03-09T05:07:06.942Z,5.10
2024-03-09T05:09:39.710Z,4.80
2024-03-09T05:12:10.337Z,4.90
2024-03-09T05:14:40.046Z,5.00
2024-03-09T05:17:09.753Z,4.90
2024-03-09T05:19:40.644Z,4.50
2024-03-09T05:22:10.597Z,4.68
2024-03-09T05:24:40.289Z,5.10
2024-03-09T05:27:10.217Z,4.85
2024-03-09T05:29:42.923Z,5.20
2024-03-09T05:32:13.397Z,5.13
2024-03-09T05:34:46.465Z,4.70
2024-03-09T05:37:16.258Z,4.97
2024-03-09T05:39:45.971Z,5.00
2024-03-09T05:42:18.149Z,4.90
2024-03-09T05:44:48.320Z,5.43
2024-03-09T05:47:18.020Z,4.63
2024-03-09T05:49:49.635Z,4.75
2024-03-09T05:52:19.296Z,4.63
2024-03-09T05:55:09.189Z,5.55
2024-03-09T05:57:39.056Z,4.97
2024-03-09T06:00:11.240Z,4.57
2024-03-09T06:02:46.190Z,4.72
2024-03-09T06:05:18.358Z,4.57
2024-03-09T06:07:48.950Z,4.72
2024-03-09T06:10:19.911Z,4.57
2024-03-09T06:12:57.172Z,5.30
2024-03-09T06:15:28.249Z,5.13
2024-03-09T06:18:01.414Z,5.18
2024-03-09T06:23:03.115Z,4.45
2024-03-09T06:25:33.532Z,5.60
2024-03-09T06:28:08.105Z,4.63
2024-03-09T06:30:39.829Z,5.25
2024-03-09T06:33:09.727Z,4.95
2024-03-09T06:35:40.827Z,4.80
2024-03-09T06:38:12.742Z,5.13
2024-03-09T06:40:47.992Z,5.20
2024-03-09T06:43:19.073Z,5.35
2024-03-09T06:45:50.630Z,5.63
2024-03-09T06:48:26.053Z,5.50
2024-03-09T06:50:56.761Z,5.20
2024-03-09T06:53:28.000Z,5.07
2024-03-09T06:56:06.046Z,5.65
2024-03-09T06:58:38.976Z,5.43
2024-03-09T07:01:08.831Z,4.90
2024-03-09T07:03:39.050Z,5.40
2024-03-09T07:06:10.624Z,5.28
2024-03-09T07:08:40.820Z,5.03
2024-03-09T07:11:10.569Z,4.88
2024-03-09T07:13:40.334Z,5.53
2024-03-09T07:16:10.400Z,5.55
2024-03-09T07:18:40.045Z,5.10
2024-03-09T07:21:12.975Z,5.43
2024-03-09T07:23:42.854Z,5.68
2024-03-09T07:26:16.529Z,5.22
2024-03-09T07:28:46.452Z,4.97
2024-03-09T07:31:17.883Z,5.55
2024-03-09T07:33:47.562Z,5.60
2024-03-09T07:36:17.220Z,5.45
2024-03-09T07:38:48.735Z,5.75
2024-03-09T07:41:19.284Z,5.93
2024-03-09T07:43:49.016Z,5.30
2024-03-09T07:46:18.814Z,5.32
2024-03-09T07:48:48.460Z,5.53
2024-03-09T07:51:18.170Z,5.50
2024-03-09T07:53:47.871Z,5.57
2024-03-09T07:56:19.408Z,5.50
2024-03-09T07:58:51.516Z,5.43
2024-03-09T08:01:21.402Z,5.65
2024-03-09T08:03:51.258Z,5.13
2024-03-09T08:06:21.341Z,5.03
2024-03-09T08:08:51.657Z,5.65
2024-03-09T08:11:25.403Z,5.32
2024-03-09T08:13:55.133Z,5.13
2024-03-09T08:16:24.904Z,5.20
2024-03-09T08:18:54.641Z,5.38
2024-03-09T08:21:25.779Z,5.15
2024-03-09T08:23:55.414Z,4.90
2024-03-09T08:26:25.114Z,5.78
2024-03-09T08:28:54.882Z,5.63
2024-03-09T08:31:26.957Z,4.85
2024-03-09T08:33:56.683Z,5.03
2024-03-09T08:36:26.515Z,4.90
2024-03-09T08:38:56.283Z,5.30
2024-03-09T08:41:26.163Z,5.50
2024-03-09T08:43:59.174Z,5.70
2024-03-09T08:46:29.087Z,5.00
2024-03-09T08:49:00.190Z,5.40
2024-03-09T08:51:29.948Z,5.70
2024-03-09T08:53:59.644Z,5.43
2024-03-09T08:56:29.852Z,5.35
2024-03-09T08:58:59.573Z,5.30
2024-03-09T09:01:29.294Z,5.18
2024-03-09T09:03:58.850Z,5.53
2024-03-09T09:06:28.696Z,5.93
2024-03-09T09:09:00.908Z,5.82
2024-03-09T09:11:31.082Z,4.95
2024-03-09T09:14:00.803Z,5.53
2024-03-09T09:16:30.544Z,5.20
2024-03-09T09:19:01.270Z,5.57
2024-03-09T09:21:33.199Z,5.95
2024-03-09T09:24:02.946Z,4.97
2024-03-09T09:26:32.932Z,5.50
2024-03-09T09:29:06.612Z,5.05
2024-03-09T09:31:36.453Z,6.03
2024-03-09T09:34:06.173Z,5.70
2024-03-09T09:36:38.514Z,5.60
2024-03-09T09:39:08.333Z,5.40
2024-03-09T09:41:39.260Z,5.60
2024-03-09T09:44:14.310Z,5.80
2024-03-09T09:46:44.173Z,5.35
2024-03-09T09:49:14.768Z,4.70
2024-03-09T09:51:47.991Z,5.38
2024-03-09T09:54:19.254Z,5.78
2024-03-09T09:56:49.223Z,5.35
2024-03-09T09:59:19.996Z,5.50
2024-03-09T10:01:49.761Z,5.35
2024-03-09T10:04:20.045Z,5.78
2024-03-09T10:06:50.675Z,5.20
2024-03-09T10:09:35.052Z,5.07
2024-03-09T10:12:10.005Z,5.45
2024-03-09T10:17:14.916Z,5.00
2024-03-09T10:19:48.256Z,5.18
2024-03-09T10:22:18.177Z,5.72
2024-03-09T10:24:59.259Z,5.28
2024-03-09T10:27:33.292Z,5.22
2024-03-09T10:30:17.092Z,5.22
2024-03-09T10:32:47.279Z,5.47
2024-03-09T10:35:17.511Z,5.47
2024-03-09T10:37:58.948Z,5.22
2024-03-09T10:40:29.907Z,5.55
2024-03-09T10:42:59.891Z,4.97
2024-03-09T10:45:32.521Z,5.65
2024-03-09T10:48:10.120Z,5.20
2024-03-09T10:50:46.833Z,5.03
2024-03-09T10:53:30.391Z,5.40
2024-03-09T10:56:22.457Z,5.57
2024-03-09T10:58:55.481Z,5.78
2024-03-09T11:01:26.358Z,5.45
2024-03-09T11:03:56.267Z,5.60
2024-03-09T11:06:25.931Z,6.03
2024-03-09T11:08:57.566Z,5.75
2024-03-09T11:11:34.539Z,5.40
2024-03-09T11:14:10.772Z,5.55
2024-03-09T11:16:40.598Z,4.78
2024-03-09T11:19:16.644Z,4.90
2024-03-09T11:21:48.334Z,5.68
2024-03-09T11:24:25.291Z,5.78
2024-03-09T11:26:59.250Z,5.63
2024-03-09T11:29:41.685Z,5.50
2024-03-09T11:32:14.776Z,5.47
2024-03-09T11:34:45.042Z,4.90
2024-03-09T11:37:16.002Z,6.07
2024-03-09T11:39:47.312Z,5.68
2024-03-09T11:42:21.182Z,5.30
2024-03-09T11:44:50.983Z,5.70
2024-03-09T11:47:23.631Z,5.30
2024-03-09T11:49:53.317Z,6.03
2024-03-09T11:52:28.880Z,5.10
2024-03-09T11:55:05.590Z,5.75
2024-03-09T11:57:43.423Z,5.57
2024-03-09T12:00:16.741Z,5.70
2024-03-09T12:02:46.496Z,5.45
2024-03-09T12:05:19.430Z,5.20
2024-03-09T12:07:52.609Z,5.88
2024-03-09T12:10:25.563Z,5.90
2024-03-09T12:12:56.042Z,5.40
2024-03-09T12:15:25.819Z,5.97
2024-03-09T12:17:55.566Z,5.38
2024-03-09T12:20:25.543Z,5.68
2024-03-09T12:22:55.289Z,5.28
2024-03-09T12:25:26.159Z,6.15
2024-03-09T12:27:56.217Z,5.65
2024-03-09T12:30:26.769Z,5.93
2024-03-09T12:32:57.299Z,5.47
2024-03-09T12:35:27.002Z,5.38
2024-03-09T12:37:56.794Z,5.38
2024-03-09T12:40:28.219Z,6.00
2024-03-09T12:42:57.916Z,5.78
2024-03-09T12:45:29.146Z,5.13
2024-03-09T12:48:02.959Z,5.63
2024-03-09T12:50:34.764Z,5.57
2024-03-09T12:53:05.654Z,5.43
2024-03-09T12:55:38.547Z,5.70
2024-03-09T12:58:09.737Z,5.47
2024-03-09T13:00:39.481Z,5.82
2024-03-09T13:03:09.245Z,5.65
2024-03-09T13:05:38.981Z,5.57
2024-03-09T13:08:10.242Z,5.50
2024-03-09T13:10:42.824Z,5.57
2024-03-09T13:13:16.731Z,5.55
2024-03-09T13:16:01.141Z,5.72
2024-03-09T13:18:31.188Z,5.22
2024-03-09T13:21:01.420Z,6.05
2024-03-09T13:23:33.331Z,5.50
2024-03-09T13:26:02.992Z,5.18
2024-03-09T13:28:33.807Z,5.82
2024-03-09T13:31:06.727Z,5.40
2024-03-09T13:33:44.550Z,5.30
2024-03-09T13:36:25.866Z,5.38
2024-03-09T13:38:55.606Z,5.20
2024-03-09T13:41:26.894Z,5.68
2024-03-09T13:43:59.243Z,4.95
2024-03-09T13:46:29.050Z,5.23
2024-03-09T13:48:59.129Z,5.38
2024-03-09T13:51:29.168Z,5.28
2024-03-09T13:53:58.813Z,5.60
2024-03-09T13:56:31.107Z,5.30
2024-03-09T13:59:00.737Z,5.22
2024-03-09T14:01:32.460Z,5.55
2024-03-09T14:04:02.179Z,5.05
2024-03-09T14:06:50.542Z,5.85
2024-03-09T14:09:35.772Z,5.40
2024-03-09T14:12:05.722Z,5.13
2024-03-09T14:14:35.425Z,5.82
2024-03-09T14:17:07.015Z,5.40
2024-03-09T14:19:36.729Z,5.50
2024-03-09T14:22:13.705Z,4.65
2024-03-09T14:24:46.963Z,5.78
2024-03-09T14:32:27.553Z,5.38
2024-03-09T14:34:57.256Z,5.43
2024-03-09T14:37:26.986Z,5.13
2024-03-09T14:39:56.599Z,5.20
2024-03-09T14:42:26.330Z,5.82
2024-03-09T14:44:57.154Z,5.40
2024-03-09T14:47:30.196Z,5.38
2024-03-09T14:50:00.080Z,5.25
2024-03-09T14:52:31.542Z,5.53
2024-03-09T14:55:01.736Z,5.70
2024-03-09T14:57:31.668Z,5.93
2024-03-09T15:00:02.941Z,5.30
2024-03-09T15:02:32.970Z,5.20
2024-03-09T15:05:03.190Z,5.38
2024-03-09T15:07:35.121Z,5.70
2024-03-09T15:10:04.960Z,5.72
2024-03-09T15:12:34.593Z,5.30
2024-03-09T15:15:05.054Z,5.85
2024-03-09T15:17:35.056Z,5.60
2024-03-09T15:20:05.749Z,5.63
2024-03-09T15:22:35.619Z,5.20
2024-03-09T15:25:15.796Z,5.38
2024-03-09T15:27:45.751Z,5.30
2024-03-09T15:30:16.280Z,5.57
2024-03-09T15:32:45.978Z,5.13
2024-03-09T15:35:17.968Z,5.15
2024-03-09T15:37:47.841Z,5.57
2024-03-09T15:40:20.108Z,6.00
2024-03-09T15:42:50.387Z,5.47
2024-03-09T15:45:23.328Z,5.05
2024-03-09T15:47:53.737Z,5.80
2024-03-09T15:50:30.619Z,5.55
2024-03-09T15:53:00.621Z,5.65
2024-03-09T15:55:36.335Z,5.60
2024-03-09T15:58:07.222Z,5.50
2024-03-09T16:00:44.619Z,4.93
2024-03-09T16:03:14.462Z,5.57
2024-03-09T16:05:44.292Z,5.47
2024-03-09T16:08:18.153Z,6.07
2024-03-09T16:10:49.177Z,5.70
2024-03-09T16:13:19.113Z,5.50
2024-03-09T16:15:54.474Z,5.22
2024-03-09T16:18:27.414Z,5.68
2024-03-09T16:20:57.080Z,5.72
2024-03-09T16:23:26.750Z,5.22
2024-03-09T16:25:56.494Z,5.30
2024-03-09T16:28:29.287Z,5.80
2024-03-09T16:31:02.539Z,5.70
2024-03-09T16:36:01.911Z,5.88
2024-03-09T16:38:31.694Z,5.68
2024-03-09T16:41:03.920Z,5.22
2024-03-09T16:43:36.661Z,5.78
2024-03-09T16:46:09.828Z,5.53
2024-03-09T16:48:39.517Z,5.60
2024-03-09T16:51:11.964Z,5.68
2024-03-09T16:53:42.674Z,5.40
2024-03-09T16:56:16.573Z,5.35
2024-03-09T16:58:46.510Z,5.05
2024-03-09T17:01:16.349Z,4.90
2024-03-09T17:03:46.073Z,5.18
2024-03-09T17:06:18.250Z,5.63
2024-03-09T17:08:47.991Z,5.80
2024-03-09T17:11:28.358Z,5.65
2024-03-09T17:14:00.384Z,5.82
2024-03-09T17:16:30.453Z,6.03
2024-03-09T17:19:00.110Z,5.30
2024-03-09T17:21:31.264Z,4.85
2024-03-09T17:24:03.169Z,5.18
2024-03-09T17:26:35.039Z,5.07
2024-03-09T17:29:08.208Z,5.45
2024-03-09T17:34:10.542Z,5.63
2024-03-09T17:36:40.668Z,5.32
2024-03-09T17:39:10.422Z,5.38
2024-03-09T17:41:40.356Z,5.35
2024-03-09T17:44:12.888Z,5.80
2024-03-09T17:46:42.780Z,5.35
2024-03-09T17:49:14.412Z,5.35
2024-03-09T17:51:46.817Z,5.10
2024-03-09T17:54:17.455Z,5.50
2024-03-09T17:56:47.592Z,5.53
2024-03-09T17:59:17.388Z,5.85
2024-03-09T18:01:47.300Z,5.60
2024-03-09T18:04:17.017Z,5.80
2024-03-09T18:06:47.822Z,5.18
2024-03-09T18:09:27.697Z,5.80
2024-03-09T18:11:57.449Z,5.53
2024-03-09T18:14:29.182Z,5.18
2024-03-09T18:17:07.803Z,5.60
2024-03-09T18:19:37.584Z,5.50
2024-03-09T18:22:09.964Z,5.40
2024-03-09T18:24:40.555Z,5.77
2024-03-09T18:27:11.105Z,5.60
2024-03-09T18:29:41.207Z,5.80
2024-03-09T18:32:11.030Z,5.32
2024-03-09T18:34:41.420Z,5.65
2024-03-09T18:37:11.284Z,5.70
2024-03-09T18:39:40.969Z,5.00
2024-03-09T18:42:11.517Z,5.60
2024-03-09T18:44:44.019Z,5.80
2024-03-09T18:47:13.958Z,5.40
2024-03-09T18:49:46.672Z,5.35
2024-03-09T18:52:16.631Z,5.97
2024-03-09T18:54:46.459Z,5.32
2024-03-09T18:57:16.210Z,5.32
2024-03-09T18:59:47.745Z,5.30
2024-03-09T19:02:17.577Z,5.65
2024-03-09T19:04:47.456Z,5.15
2024-03-09T19:07:17.165Z,5.88
2024-03-09T19:09:46.864Z,5.28
2024-03-09T19:12:16.709Z,5.88
2024-03-09T19:14:50.406Z,5.35
2024-03-09T19:17:23.069Z,5.78
2024-03-09T19:19:53.047Z,5.93
2024-03-09T19:22:22.822Z,5.40
2024-03-09T19:24:52.581Z,5.70
2024-03-09T19:27:22.809Z,5.50
2024-03-09T19:29:52.526Z,5.65
2024-03-09T19:32:22.380Z,6.13
2024-03-09T19:34:52.608Z,5.75
2024-03-09T19:37:22.390Z,5.70
2024-03-09T19:39:52.407Z,5.93
2024-03-09T19:42:24.282Z,5.97
2024-03-09T19:44:54.086Z,6.00
2024-03-09T19:47:24.271Z,6.10
2024-03-09T19:49:54.098Z,6.00
2024-03-09T19:52:25.095Z,5.80
2024-03-09T19:54:55.141Z,6.10
2024-03-09T19:57:26.825Z,5.60
2024-03-09T19:59:56.485Z,6.15
2024-03-09T20:02:29.080Z,5.72
2024-03-09T20:04:59.557Z,6.45
2024-03-09T20:07:32.900Z,6.03
2024-03-09T20:12:31.922Z,5.70
2024-03-09T20:15:02.233Z,6.38
2024-03-09T20:17:32.427Z,6.40
2024-03-09T20:20:04.245Z,5.97
2024-03-09T20:22:36.120Z,6.05
2024-03-09T20:25:06.767Z,6.22
2024-03-09T20:27:37.096Z,6.28
2024-03-09T20:30:07.742Z,6.40
2024-03-09T20:32:37.486Z,6.07
2024-03-09T20:35:13.735Z,6.95
2024-03-09T20:37:43.731Z,6.03
2024-03-09T20:40:21.255Z,6.32
2024-03-09T20:42:52.612Z,6.30
2024-03-09T20:45:23.912Z,6.10
2024-03-09T20:47:56.618Z,6.18
2024-03-09T20:50:28.564Z,6.10
2024-03-09T20:53:05.268Z,6.43
2024-03-09T20:55:35.039Z,6.68
2024-03-09T20:58:05.138Z,6.03
2024-03-09T21:00:35.436Z,5.85
2024-03-09T21:03:05.101Z,6.32
2024-03-09T21:05:37.452Z,6.93
2024-03-09T21:08:07.776Z,6.47
2024-03-09T21:10:37.661Z,6.65
2024-03-09T21:13:07.487Z,6.47
2024-03-09T21:15:37.143Z,6.55
2024-03-09T21:18:07.229Z,6.30
2024-03-09T21:20:37.822Z,6.50
2024-03-09T21:23:11.223Z,6.05
2024-03-09T21:25:44.972Z,6.53
2024-03-09T21:28:19.066Z,6.45
2024-03-09T21:30:49.833Z,6.18
2024-03-09T21:33:19.564Z,6.50
2024-03-09T21:35:49.463Z,7.70
2024-03-09T21:38:19.212Z,6.35
2024-03-09T21:40:51.207Z,6.55
2024-03-09T21:43:20.890Z,6.57
2024-03-09T21:45:50.604Z,6.32
2024-03-09T21:48:20.429Z,6.30
2024-03-09T21:50:59.699Z,6.38
2024-03-09T21:53:38.026Z,7.00
2024-03-09T21:56:08.005Z,6.60
2024-03-09T21:58:41.565Z,6.85
2024-03-09T22:01:14.592Z,6.50
2024-03-09T22:03:44.348Z,6.85
2024-03-09T22:06:15.483Z,6.13
2024-03-09T22:08:45.458Z,7.13
2024-03-09T22:11:15.951Z,6.53
2024-03-09T22:13:46.651Z,6.50
2024-03-09T22:16:24.614Z,6.68
2024-03-09T22:18:55.882Z,6.80
2024-03-09T22:21:25.863Z,6.75
2024-03-09T22:23:55.597Z,7.05
2024-03-09T22:26:26.101Z,7.38
2024-03-09T22:28:55.979Z,7.32
2024-03-09T22:31:27.716Z,7.10
2024-03-09T22:33:57.428Z,7.10
2024-03-09T22:36:27.269Z,8.38
2024-03-09T22:38:56.907Z,7.03
2024-03-09T22:41:27.274Z,6.97
2024-03-09T22:43:57.235Z,6.45
2024-03-09T22:46:26.903Z,6.43
2024-03-09T22:48:56.620Z,7.03
2024-03-09T22:51:26.296Z,7.22
2024-03-09T22:53:56.156Z,7.10
2024-03-09T22:56:26.561Z,7.03
2024-03-09T22:58:56.328Z,6.43
2024-03-09T23:01:36.369Z,7.03
2024-03-09T23:04:06.115Z,7.25
2024-03-09T23:06:36.599Z,7.07
2024-03-09T23:09:09.703Z,7.45
2024-03-09T23:11:39.487Z,6.30
2024-03-09T23:14:09.237Z,7.10
2024-03-09T23:16:38.947Z,6.72
2024-03-09T23:19:11.048Z,6.93
2024-03-09T23:21:41.224Z,6.43
2024-03-09T23:24:11.003Z,7.13
2024-03-09T23:26:42.291Z,6.45
2024-03-09T23:29:12.128Z,6.13
2024-03-09T23:31:42.683Z,7.10
2024-03-09T23:34:12.298Z,6.68
2024-03-09T23:36:45.269Z,7.28
2024-03-09T23:39:15.069Z,6.80
2024-03-09T23:41:45.672Z,7.35
2024-03-09T23:44:15.340Z,6.80
2024-03-09T23:46:45.493Z,6.90
2024-03-09T23:49:16.811Z,7.05
2024-03-09T23:51:46.425Z,6.97
2024-03-09T23:54:16.455Z,6.57
2024-03-09T23:56:49.408Z,7.15
2024-03-09T23:59:19.150Z,6.53
